createdAt,value
2019-06-20T06:45:35.908Z,46.60
2019-06-20T06:48:07.912Z,46.43
2019-06-20T06:50:40.049Z,46.95
2019-06-20T06:53:11.997Z,45.74
2019-06-20T06:55:44.175Z,46.09
2019-06-20T06:58:16.550Z,45.03
2019-06-20T07:00:48.614Z,45.35
2019-06-20T07:03:20.679Z,44.21
2019-06-20T07:05:52.893Z,44.58
2019-06-20T07:08:25.118Z,44.63
2019-06-20T07:10:57.087Z,44.42
2019-06-20T07:13:30.437Z,43.40
2019-06-20T07:16:03.465Z,43.39
2019-06-20T07:18:35.749Z,42.65
2019-06-20T07:21:07.607Z,42.71
2019-06-20T07:23:39.660Z,43.18
2019-06-20T07:26:11.828Z,43.20
2019-06-20T07:28:43.790Z,43.32
2019-06-20T07:31:15.552Z,43.18
2019-06-20T07:33:47.614Z,42.61
2019-06-20T07:36:19.476Z,41.77
2019-06-20T07:38:51.848Z,41.77
2019-06-20T07:41:24.061Z,41.75
2019-06-20T07:43:56.187Z,40.33
2019-06-20T07:46:28.260Z,39.38
2019-06-20T07:49:01.791Z,38.41
2019-06-20T07:51:33.823Z,37.85
2019-06-20T07:54:06.094Z,38.30
2019-06-20T07:56:38.515Z,35.43
2019-06-20T07:59:10.936Z,35.79
2019-06-20T08:01:43.124Z,34.54
2019-06-20T08:04:15.267Z,34.62
2019-06-20T08:06:48.538Z,33.66
2019-06-20T08:09:22.164Z,34.48
2019-06-20T08:11:54.225Z,34.57
2019-06-20T08:14:26.294Z,34.21
2019-06-20T08:16:58.457Z,33.87
2019-06-20T08:19:30.417Z,34.01
2019-06-20T08:22:02.512Z,33.80
2019-06-20T08:24:34.752Z,32.95
2019-06-20T08:27:06.803Z,32.87
2019-06-20T08:29:38.652Z,32.70
2019-06-20T08:32:10.367Z,32.25
2019-06-20T08:38:38.601Z,32.38
2019-06-20T08:41:10.705Z,31.68
2019-06-20T08:43:43.080Z,31.85
2019-06-20T08:46:14.964Z,32.12
2019-06-20T08:48:46.998Z,32.44
2019-06-20T08:51:19.174Z,32.31
2019-06-20T08:53:51.240Z,31.91
2019-06-20T08:56:23.376Z,31.71
2019-06-20T08:58:57.001Z,32.48
2019-06-20T09:01:29.778Z,32.74
2019-06-20T09:06:34.051Z,32.00
2019-06-20T09:09:07.337Z,31.53
2019-06-20T09:11:39.451Z,31.90
2019-06-20T09:14:11.552Z,31.72
2019-06-20T09:16:43.819Z,32.13
2019-06-20T09:19:15.888Z,31.72
2019-06-20T09:21:48.170Z,31.08
2019-06-20T09:24:20.136Z,30.65
2019-06-20T09:26:52.758Z,30.20
2019-06-20T09:29:38.338Z,29.45
2019-06-20T09:32:00.037Z,29.31
2019-06-20T09:34:32.992Z,29.09
2019-06-20T09:37:05.162Z,28.65
2019-06-20T09:39:37.228Z,28.44
2019-06-20T09:42:10.008Z,27.72
2019-06-20T09:44:42.176Z,27.97
2019-06-20T09:47:14.042Z,28.17
2019-06-20T09:49:49.190Z,27.82
2019-06-20T09:52:19.395Z,27.53
2019-06-20T09:54:53.864Z,27.64
2019-06-20T09:57:25.881Z,28.02
2019-06-20T10:00:07.693Z,27.70
2019-06-20T10:02:31.661Z,28.42
2019-06-20T10:05:05.866Z,28.52
2019-06-20T10:07:37.944Z,28.59
2019-06-20T10:10:11.643Z,29.11
2019-06-20T10:12:43.510Z,28.97
2019-06-20T10:15:24.947Z,29.12
2019-06-20T10:17:56.973Z,28.60
2019-06-20T10:20:29.039Z,27.59
2019-06-20T10:23:01.310Z,28.07
2019-06-20T10:25:33.382Z,27.72
2019-06-20T10:28:05.757Z,26.78
2019-06-20T10:30:37.823Z,25.97
2019-06-20T10:33:09.585Z,26.56
2019-06-20T10:35:41.757Z,27.34
2019-06-20T10:38:13.931Z,27.48
2019-06-20T10:40:46.389Z,27.05
2019-06-20T10:43:19.409Z,26.93
2019-06-20T10:45:52.376Z,26.72
2019-06-20T10:48:24.390Z,27.36
2019-06-20T10:50:58.068Z,28.03
2019-06-20T10:53:30.142Z,28.58
2019-06-20T10:56:02.204Z,28.42
2019-06-20T10:58:34.283Z,27.30
2019-06-20T11:01:06.439Z,26.23
2019-06-20T11:03:39.280Z,25.41
2019-06-20T11:06:12.010Z,25.07
2019-06-20T11:08:45.145Z,24.68
2019-06-20T11:11:17.181Z,25.51
2019-06-20T11:13:49.136Z,26.86
2019-06-20T11:16:21.514Z,28.49
2019-06-20T11:18:53.784Z,28.34
2019-06-20T11:21:25.547Z,28.93
2019-06-20T11:23:57.716Z,28.83
2019-06-20T11:26:29.681Z,28.44
2019-06-20T11:29:01.870Z,26.32
2019-06-20T11:31:33.926Z,25.58
2019-06-20T11:34:05.796Z,24.55
2019-06-20T11:36:38.690Z,24.95
2019-06-20T11:39:10.953Z,25.08
2019-06-20T11:41:43.684Z,25.60
2019-06-20T11:44:15.506Z,26.18
2019-06-20T11:46:47.465Z,25.93
2019-06-20T11:49:19.441Z,26.49
2019-06-20T11:51:51.502Z,27.20
2019-06-20T11:54:23.550Z,26.14
2019-06-20T11:56:55.640Z,26.31
2019-06-20T11:59:28.017Z,26.24
2019-06-20T12:02:00.082Z,26.10
2019-06-20T12:04:31.951Z,25.92
2019-06-20T12:07:04.324Z,25.22
2019-06-20T12:09:36.605Z,26.15
2019-06-20T12:12:08.563Z,25.15
2019-06-20T12:14:42.517Z,24.67
2019-06-20T12:17:14.174Z,24.77
2019-06-20T12:19:46.728Z,25.40
2019-06-20T12:22:18.693Z,23.89
2019-06-20T12:24:50.852Z,23.25
2019-06-20T12:27:22.931Z,23.35
2019-06-20T12:29:55.111Z,24.14
2019-06-20T12:32:27.376Z,24.10
2019-06-20T12:34:59.752Z,23.66
2019-06-20T12:37:31.813Z,23.26
2019-06-20T12:40:06.955Z,23.15
2019-06-20T12:42:41.234Z,24.21
2019-06-20T12:45:12.959Z,24.12
2019-06-20T12:47:46.106Z,22.83
2019-06-20T12:50:18.299Z,23.51
2019-06-20T12:52:50.461Z,23.00
2019-06-20T12:55:22.330Z,22.30
2019-06-20T12:57:54.389Z,21.57
2019-06-20T13:00:26.665Z,20.22
2019-06-20T13:02:58.424Z,19.95
2019-06-20T13:05:30.192Z,20.47
2019-06-20T13:08:02.578Z,20.42
2019-06-20T13:10:34.637Z,21.11
2019-06-20T13:13:06.915Z,21.53
2019-06-20T13:15:39.401Z,21.62
2019-06-20T13:18:12.601Z,23.18
2019-06-20T13:20:44.551Z,23.27
2019-06-20T13:23:16.614Z,22.66
2019-06-20T13:25:48.999Z,22.43
2019-06-20T13:28:20.869Z,22.78
2019-06-20T13:30:53.031Z,21.74
2019-06-20T13:33:25.311Z,21.99
2019-06-20T13:35:57.108Z,23.08
2019-06-20T13:38:29.347Z,22.45
2019-06-20T13:41:01.513Z,21.29
2019-06-20T13:43:33.585Z,21.29
2019-06-20T13:46:05.582Z,21.97
2019-06-20T13:48:38.895Z,23.07
2019-06-20T13:51:11.426Z,22.23
2019-06-20T13:53:44.228Z,21.97
2019-06-20T13:56:16.167Z,21.29
2019-06-20T13:58:48.824Z,21.36
2019-06-20T14:01:20.724Z,20.85
2019-06-20T14:03:53.022Z,20.73
2019-06-20T14:06:24.873Z,20.24
2019-06-20T14:08:56.823Z,19.20
2019-06-20T14:11:28.791Z,19.19
2019-06-20T14:14:00.963Z,19.43
2019-06-20T14:16:33.137Z,19.23
2019-06-20T14:19:05.204Z,19.45
2019-06-20T14:21:37.063Z,19.62
2019-06-20T14:24:09.138Z,19.78
2019-06-20T14:26:43.382Z,20.52
2019-06-20T14:29:14.708Z,21.85
2019-06-20T14:31:49.142Z,21.30
2019-06-20T14:34:22.219Z,20.60
2019-06-20T14:36:54.107Z,20.61
2019-06-20T14:39:25.973Z,19.43
2019-06-20T14:41:58.119Z,19.09
2019-06-20T14:44:30.288Z,18.79
2019-06-20T14:47:02.257Z,19.06
2019-06-20T14:49:34.174Z,19.02
2019-06-20T14:52:05.983Z,18.80
2019-06-20T14:54:38.256Z,19.02
2019-06-20T14:57:10.330Z,18.99
2019-06-20T14:59:43.149Z,18.62
2019-06-20T15:02:15.902Z,18.98
2019-06-20T15:04:48.067Z,19.47
2019-06-20T15:07:20.240Z,19.24
2019-06-20T15:09:53.233Z,19.03
2019-06-20T15:12:25.211Z,19.79
2019-06-20T15:14:57.367Z,19.61
2019-06-20T15:17:29.438Z,20.23
2019-06-20T15:20:01.712Z,20.43
2019-06-20T15:22:33.782Z,20.14
2019-06-20T15:25:06.946Z,20.07
2019-06-20T15:27:38.739Z,20.58
2019-06-20T15:30:10.813Z,20.53
2019-06-20T15:32:55.595Z,20.51
2019-06-20T15:35:17.185Z,20.40
2019-06-20T15:37:51.616Z,20.68
2019-06-20T15:40:23.892Z,20.99
2019-06-20T15:42:56.974Z,21.34
2019-06-20T15:45:29.765Z,21.38
2019-06-20T15:48:01.751Z,21.57
2019-06-20T15:51:02.071Z,21.79
2019-06-20T15:53:36.134Z,20.69
2019-06-20T15:56:08.540Z,21.29
2019-06-20T15:58:40.612Z,21.68
2019-06-20T16:01:12.474Z,21.89
2019-06-20T16:03:44.446Z,21.81
2019-06-20T16:06:16.513Z,22.65
2019-06-20T16:08:48.475Z,23.87
2019-06-20T16:11:20.651Z,25.06
2019-06-20T16:13:52.616Z,26.52
2019-06-20T16:16:24.778Z,27.61
2019-06-20T16:18:56.958Z,28.23
2019-06-20T16:21:29.128Z,28.23
2019-06-20T16:24:00.992Z,28.67
2019-06-20T16:26:33.047Z,29.31
2019-06-20T16:29:06.830Z,29.25
2019-06-20T16:31:39.332Z,28.62
2019-06-20T16:34:11.199Z,28.53
2019-06-20T16:36:43.258Z,29.04
2019-06-20T16:39:15.499Z,29.45
2019-06-20T16:41:47.606Z,29.93
2019-06-20T16:44:21.772Z,30.41
2019-06-20T16:46:53.881Z,30.06
2019-06-20T16:49:25.649Z,29.95
2019-06-20T16:51:57.742Z,29.21
2019-06-20T16:54:29.700Z,29.19
2019-06-20T16:57:01.842Z,29.54
2019-06-20T16:59:34.118Z,29.64
2019-06-20T17:02:06.101Z,29.93
2019-06-20T17:04:37.814Z,30.28
2019-06-20T17:07:09.627Z,30.44
2019-06-20T17:09:41.661Z,30.87
2019-06-20T17:12:13.507Z,31.56
2019-06-20T17:14:45.300Z,31.59
2019-06-20T17:17:18.103Z,32.02
2019-06-20T17:19:50.151Z,32.04
2019-06-20T17:22:22.217Z,33.06
2019-06-20T17:24:54.211Z,33.99
2019-06-20T17:27:26.366Z,34.62
2019-06-20T17:29:58.223Z,35.03
2019-06-20T17:32:30.721Z,35.76
2019-06-20T17:35:02.964Z,36.22
2019-06-20T17:37:34.832Z,36.73
2019-06-20T17:40:08.840Z,36.94
2019-06-20T17:42:40.726Z,37.64
2019-06-20T17:45:13.628Z,37.64
2019-06-20T17:47:45.550Z,38.34
2019-06-20T17:50:17.718Z,38.25
2019-06-20T17:52:49.693Z,39.10
2019-06-20T17:55:22.207Z,39.67
2019-06-20T17:57:54.328Z,40.01
2019-06-20T18:00:26.295Z,40.16
2019-06-20T18:02:58.572Z,40.41
2019-06-20T18:05:31.650Z,41.10
2019-06-20T18:08:14.492Z,40.92
2019-06-20T18:10:37.433Z,40.67
2019-06-20T18:13:09.432Z,40.68
2019-06-20T18:15:41.576Z,41.21
2019-06-20T18:18:13.538Z,41.01
2019-06-20T18:20:45.445Z,41.32
2019-06-20T18:23:17.470Z,42.07
2019-06-20T18:25:49.950Z,42.19
2019-06-20T18:28:22.246Z,42.57
2019-06-20T18:30:54.706Z,42.80
2019-06-20T18:33:26.977Z,42.75
2019-06-20T18:35:58.942Z,42.53
2019-06-20T18:38:31.246Z,42.45
2019-06-20T18:41:03.319Z,42.26
2019-06-20T18:43:35.442Z,42.38
2019-06-20T18:46:07.612Z,42.73
2019-06-20T18:48:39.466Z,42.95
2019-06-20T18:51:11.429Z,42.98
2019-06-20T18:53:43.815Z,42.83
2019-06-20T18:56:15.773Z,42.97
2019-06-20T18:58:47.937Z,43.13
2019-06-20T19:01:20.031Z,43.28
2019-06-20T19:03:52.391Z,43.50
2019-06-20T19:06:35.553Z,43.90
2019-06-20T19:08:58.053Z,44.13
2019-06-20T19:11:30.433Z,44.11
2019-06-20T19:14:03.735Z,44.55
2019-06-20T19:16:36.041Z,44.66
2019-06-20T19:19:08.076Z,44.90
2019-06-20T19:21:40.440Z,44.81
2019-06-20T19:24:12.298Z,45.34
2019-06-20T19:26:44.369Z,45.00
2019-06-20T19:29:16.329Z,45.29
2019-06-20T19:31:48.305Z,44.76
2019-06-20T19:34:20.469Z,43.98
2019-06-20T19:36:52.747Z,44.06
2019-06-20T19:39:25.118Z,44.72
2019-06-20T19:41:57.103Z,44.17
2019-06-20T19:44:29.049Z,43.97
2019-06-20T19:47:01.221Z,45.43
2019-06-20T19:49:33.698Z,45.55
2019-06-20T19:52:05.869Z,45.11
2019-06-20T19:54:38.244Z,44.80
2019-06-20T19:57:10.314Z,43.65
2019-06-20T19:59:42.282Z,44.08
2019-06-20T20:02:14.461Z,44.99
2019-06-20T20:04:46.635Z,46.55
2019-06-20T20:07:18.741Z,45.47
2019-06-20T20:09:51.081Z,45.16
2019-06-20T20:12:23.345Z,45.81
2019-06-20T20:14:55.317Z,45.78
2019-06-20T20:17:27.389Z,46.05
2019-06-20T20:19:59.250Z,46.27
2019-06-20T20:22:31.319Z,46.20
2019-06-20T20:25:06.155Z,46.82
2019-06-20T20:27:37.851Z,46.55
2019-06-20T20:30:13.023Z,46.58
2019-06-20T20:32:45.332Z,46.18
2019-06-20T20:35:31.555Z,45.65
2019-06-20T20:37:51.906Z,45.73
2019-06-20T20:40:25.066Z,44.66
2019-06-20T20:42:57.391Z,44.87
2019-06-20T20:45:29.260Z,44.92
2019-06-20T20:48:01.625Z,45.21
2019-06-20T20:50:33.593Z,44.79
2019-06-20T20:53:05.463Z,45.06
2019-06-20T20:55:37.431Z,44.73
2019-06-20T20:58:09.796Z,45.53
2019-06-20T21:00:59.783Z,45.32
2019-06-20T21:03:31.852Z,45.79
2019-06-20T21:06:03.847Z,46.56
2019-06-20T21:08:35.625Z,46.25
2019-06-20T21:11:07.437Z,46.23
2019-06-20T21:13:39.614Z,46.37
2019-06-20T21:16:11.577Z,45.66
2019-06-20T21:18:43.440Z,45.43
2019-06-20T21:21:15.714Z,44.90
2019-06-20T21:23:47.801Z,45.06
2019-06-20T21:26:19.959Z,45.55
2019-06-20T21:28:52.032Z,45.74
2019-06-20T21:31:24.608Z,46.33
2019-06-20T21:33:57.280Z,46.65
2019-06-20T21:36:29.159Z,46.29
2019-06-20T21:39:01.322Z,47.22
2019-06-20T21:41:35.133Z,47.66
2019-06-20T21:44:07.310Z,47.29
2019-06-20T21:46:39.372Z,47.42
2019-06-20T21:49:11.747Z,47.28
2019-06-20T21:51:44.809Z,47.35
2019-06-20T21:54:16.815Z,47.59
2019-06-20T21:56:48.986Z,47.65
2019-06-20T21:59:20.837Z,47.62
2019-06-20T22:01:54.142Z,47.94
2019-06-20T22:04:26.112Z,48.09
2019-06-20T22:06:58.380Z,48.33
2019-06-20T22:09:30.453Z,48.47
2019-06-20T22:12:02.757Z,48.19
2019-06-20T22:14:34.994Z,48.79
2019-06-20T22:17:07.060Z,49.50
2019-06-20T22:19:40.165Z,49.79
2019-06-20T22:22:12.495Z,49.78
2019-06-20T22:24:44.403Z,49.67
2019-06-20T22:27:16.773Z,49.90
2019-06-20T22:29:48.677Z,49.60
2019-06-20T22:32:21.115Z,49.79
2019-06-20T22:34:53.386Z,50.01
2019-06-20T22:37:25.354Z,50.04
2019-06-20T22:39:57.422Z,50.12
2019-06-20T22:42:29.592Z,50.21
2019-06-20T22:45:01.814Z,50.99
2019-06-20T22:47:33.738Z,50.69
2019-06-20T22:50:10.205Z,51.02
2019-06-20T22:52:42.168Z,51.60
2019-06-20T22:55:14.541Z,51.62
2019-06-20T22:57:46.607Z,51.51
2019-06-20T23:00:18.788Z,51.13
2019-06-20T23:02:50.856Z,51.30
2019-06-20T23:05:23.021Z,51.35
2019-06-20T23:07:55.099Z,51.18
2019-06-20T23:10:27.263Z,51.62
2019-06-20T23:12:59.639Z,51.00
2019-06-20T23:15:31.636Z,51.06
2019-06-20T23:18:03.468Z,51.57
2019-06-20T23:20:35.646Z,51.13
2019-06-20T23:23:07.503Z,51.63
2019-06-20T23:25:41.218Z,52.04
2019-06-20T23:28:13.281Z,52.49
2019-06-20T23:30:45.447Z,51.63
2019-06-20T23:33:17.622Z,51.43
2019-06-20T23:35:49.994Z,51.20
2019-06-20T23:38:21.976Z,51.45
2019-06-20T23:40:54.146Z,51.56
2019-06-20T23:43:26.414Z,51.79
2019-06-20T23:45:58.580Z,52.01
2019-06-20T23:48:33.452Z,52.49
2019-06-20T23:51:04.668Z,53.21
2019-06-20T23:53:36.835Z,53.37
2019-06-20T23:56:08.667Z,53.44
2019-06-20T23:58:41.281Z,53.48
